Weather reports worldwide

Advertisment
Monte Cimone, Italy (16134): temperature & dewpoint: 30.06.2020 07:00:00 - 06.07.2020 07:00:00 (CEST)Monte Cimone, Italy (16134): wind speed & gusts: 30.06.2020 07:00:00 - 06.07.2020 07:00:00 (CEST)Monte Cimone, Italy (16134): wind direction: 30.06.2020 07:00:00 - 06.07.2020 07:00:00 (CEST)Monte Cimone, Italy (16134): sunshine duration: 30.06.2020 07:00:00 - 06.07.2020 07:00:00 (CEST)
Date & Time tt [°C] td [°C] ff [km/h] ff [kn] fx [km/h] fx [kn] dd sd [min]
06.07.2020 07:00:00 13,0 -0,5 26 14 - - NE 39
06.07.2020 06:00:00 12,8 -2,6 28 15 - - NE 0
06.07.2020 05:00:00 12,5 -3,7 24 13 - - NE 0
06.07.2020 04:00:00 12,8 0,8 4 2 21 11 N 0
06.07.2020 03:00:00 12,5 -1,2 21 11 - - NE 0
06.07.2020 02:00:00 12,7 0,7 4 2 - - N 0
06.07.2020 01:00:00 12,9 4,2 4 2 - - N 0
06.07.2020 00:00:00 12,8 3,5 4 2 14 8 N 0
05.07.2020 23:00:00 12,1 10,2 24 13 - - N 0
05.07.2020 22:00:00 12,4 10,0 4 2 - - N 0
05.07.2020 21:00:00 13,0 6,9 18 10 - - NNW 0
05.07.2020 20:00:00 14,0 7,3 9 5 - - N 8
05.07.2020 19:00:00 14,6 8,8 11 6 - - NNE 58
05.07.2020 18:00:00 15,1 10,4 4 2 17 9 N 58
05.07.2020 17:00:00 15,4 10,6 4 2 - - N 38
05.07.2020 16:00:00 15,4 11,2 4 2 - - N 10
05.07.2020 15:00:00 15,3 10,6 4 2 - - N 23
05.07.2020 14:00:00 14,8 10,5 4 2 - - N 14
05.07.2020 13:00:00 14,8 10,7 4 2 - - N 37
05.07.2020 12:00:00 13,9 9,8 4 2 14 8 N 51
05.07.2020 11:00:00 13,1 8,7 4 2 - - N 58
05.07.2020 10:00:00 13,0 8,0 4 2 20 11 N 60
05.07.2020 09:00:00 11,7 4,6 4 2 29 16 N 60
05.07.2020 08:00:00 11,4 3,9 4 2 - - N 60
05.07.2020 07:00:00 11,0 5,8 21 11 - - NNE 39
05.07.2020 06:00:00 10,6 4,7 15 8 - - NNE 0
05.07.2020 05:00:00 10,7 4,3 16 9 - - N 0
05.07.2020 04:00:00 10,7 4,4 18 10 - - NNE 0
05.07.2020 03:00:00 10,4 4,7 11 6 18 10 NNE 0
05.07.2020 02:00:00 10,3 5,0 22 12 - - NNE 0
05.07.2020 01:00:00 10,2 4,8 24 13 - - NNE 0
05.07.2020 00:00:00 10,3 5,3 22 12 - - N 0
04.07.2020 23:00:00 10,4 6,0 21 11 - - NNW 0
04.07.2020 22:00:00 10,8 8,0 24 13 - - NW 0
04.07.2020 21:00:00 12,3 5,8 18 10 - - NW 0
04.07.2020 20:00:00 12,9 7,3 9 5 - - WNW 9
04.07.2020 19:00:00 12,9 9,6 4 2 - - N 36
04.07.2020 18:00:00 12,7 9,0 4 2 - - N 44
04.07.2020 17:00:00 12,3 8,7 4 2 - - N 28
04.07.2020 16:00:00 12,4 7,8 4 2 24 13 N 31
04.07.2020 15:00:00 12,8 9,2 4 2 20 11 N 22
04.07.2020 14:00:00 12,5 9,3 4 2 - - N 29
04.07.2020 13:00:00 11,7 8,7 4 2 19 10 N 47
04.07.2020 12:00:00 10,2 7,5 15 8 29 15 E 30
04.07.2020 11:00:00 9,4 7,3 21 11 - - E 51
04.07.2020 10:00:00 9,2 6,1 18 10 - - E 30
04.07.2020 09:00:00 - - - - - - - -
04.07.2020 08:00:00 8,9 4,2 4 2 - - N 23
04.07.2020 07:00:00 8,6 3,5 21 11 - - NNW 0
04.07.2020 06:00:00 7,7 4,6 22 12 31 17 NW 0
04.07.2020 05:00:00 - - - - - - - -
04.07.2020 04:00:00 8,2 7,2 21 11 30 16 ENE 0
04.07.2020 03:00:00 9,5 8,9 18 10 27 14 N 0
04.07.2020 02:00:00 9,9 4,8 16 9 - - NE 0
04.07.2020 01:00:00 - - - - - - - -
04.07.2020 00:00:00 10,8 6,6 4 2 20 11 N 0
03.07.2020 23:00:00 11,3 5,3 24 13 - - SSE 0
03.07.2020 22:00:00 11,3 6,1 34 18 - - SSE 0
03.07.2020 21:00:00 12,2 5,5 16 9 - - SE 0
03.07.2020 20:00:00 12,8 3,4 8 4 - - SE 0
03.07.2020 19:00:00 12,1 3,5 15 8 - - E 0
03.07.2020 18:00:00 12,2 5,5 15 8 - - NNE 0
03.07.2020 17:00:00 14,8 8,1 4 2 - - N 14
03.07.2020 16:00:00 14,0 9,4 4 2 - - N 19
03.07.2020 15:00:00 15,9 12,3 4 2 19 10 N 19
03.07.2020 14:00:00 16,3 11,9 4 2 - - N 18
03.07.2020 13:00:00 13,6 9,0 11 6 - - SSE 0
03.07.2020 12:00:00 15,4 10,6 4 2 - - N 19
03.07.2020 11:00:00 15,5 10,8 4 2 - - N 41
03.07.2020 10:00:00 15,2 9,0 4 2 - - N 57
03.07.2020 09:00:00 14,5 6,0 4 2 - - N 60
03.07.2020 08:00:00 13,4 7,0 5 3 - - W 60
03.07.2020 07:00:00 12,9 6,2 13 7 - - W 40
03.07.2020 06:00:00 12,4 6,4 21 11 - - W 0
03.07.2020 05:00:00 12,7 8,0 26 14 - - W 0
03.07.2020 04:00:00 - - - - - - - -
03.07.2020 03:00:00 13,0 8,5 29 16 42 23 WSW 0
03.07.2020 02:00:00 13,1 7,8 22 12 - - WSW 0
03.07.2020 01:00:00 13,8 5,6 29 16 50 27 WSW 0
03.07.2020 00:00:00 13,8 6,9 28 15 47 26 WSW 0
02.07.2020 23:00:00 13,5 7,6 26 14 - - SW 0
02.07.2020 22:00:00 14,0 6,8 26 14 40 21 SW 0
02.07.2020 21:00:00 14,7 8,1 21 11 28 15 SW 0
02.07.2020 20:00:00 16,2 9,5 13 7 - - SW 6
02.07.2020 19:00:00 17,2 10,4 15 8 24 13 SW 27
02.07.2020 18:00:00 18,5 10,5 11 6 21 11 SW 42
02.07.2020 17:00:00 19,5 10,5 4 2 - - N 41
02.07.2020 16:00:00 19,1 11,5 4 2 21 12 N 27
02.07.2020 15:00:00 19,1 13,2 4 2 - - N 25
02.07.2020 14:00:00 18,7 13,1 4 2 - - N 51
02.07.2020 13:00:00 18,3 11,8 4 2 16 9 N 59
02.07.2020 12:00:00 17,0 9,5 4 2 19 11 N 60
02.07.2020 11:00:00 15,4 9,0 4 2 - - N 60
02.07.2020 10:00:00 14,8 8,5 15 8 29 15 WSW 60
02.07.2020 09:00:00 13,9 8,3 4 2 32 17 N 60
02.07.2020 08:00:00 - - - - - - - -
02.07.2020 07:00:00 13,4 8,2 4 2 39 21 N 28
02.07.2020 06:00:00 12,9 9,3 18 10 - - SW 0
02.07.2020 05:00:00 13,3 9,3 21 11 - - SW 0
02.07.2020 04:00:00 13,6 8,7 18 10 31 17 WSW 0
02.07.2020 03:00:00 13,4 8,8 13 7 - - SW 0
02.07.2020 02:00:00 - - - - - - - -
02.07.2020 01:00:00 13,6 8,4 4 2 37 20 N 0
02.07.2020 00:00:00 14,1 8,1 29 16 45 24 WSW 0
01.07.2020 23:00:00 - - - - - - - -
01.07.2020 22:00:00 13,8 7,2 29 16 44 24 W 0
01.07.2020 21:00:00 14,6 7,7 21 11 32 17 WSW 0
01.07.2020 20:00:00 15,1 8,1 24 13 - - SW 0
01.07.2020 19:00:00 16,2 11,4 18 10 - - SW 0
01.07.2020 18:00:00 17,3 12,2 18 10 32 17 WSW 19
01.07.2020 17:00:00 18,6 12,7 13 7 - - SW 41
01.07.2020 16:00:00 19,2 12,6 4 2 22 12 N 45
01.07.2020 15:00:00 19,0 12,6 4 2 19 11 N 30
01.07.2020 14:00:00 18,6 13,0 4 2 - - N 29
01.07.2020 13:00:00 18,4 13,0 4 2 - - N 39
01.07.2020 12:00:00 16,9 12,5 4 2 - - N 53
01.07.2020 11:00:00 16,0 11,7 4 2 - - N 43
01.07.2020 10:00:00 14,1 11,0 4 2 - - N 15
01.07.2020 09:00:00 14,9 10,8 4 2 - - N 60
01.07.2020 08:00:00 14,4 8,7 11 6 - - SSW 60
01.07.2020 07:00:00 13,6 6,8 4 2 - - N 42
01.07.2020 06:00:00 12,6 7,2 11 6 - - SW 0
01.07.2020 05:00:00 12,8 8,2 16 9 - - WSW 0
01.07.2020 04:00:00 13,6 6,6 11 6 - - W 0
01.07.2020 03:00:00 13,7 6,2 8 4 - - W 0
01.07.2020 02:00:00 14,0 6,9 13 7 - - NW 0
01.07.2020 01:00:00 14,1 3,6 11 6 - - W 0
01.07.2020 00:00:00 13,9 3,4 18 10 - - W 0
30.06.2020 23:00:00 14,1 4,0 28 15 - - SW 0
30.06.2020 22:00:00 14,1 3,9 18 10 - - SW 0
30.06.2020 21:00:00 14,5 5,1 16 9 - - SSW 0
30.06.2020 20:00:00 15,5 10,9 4 2 - - N 6
30.06.2020 19:00:00 16,3 11,1 4 2 - - N 38
30.06.2020 18:00:00 17,0 11,0 4 2 18 10 N 48
30.06.2020 17:00:00 16,7 10,7 4 2 - - N 34
30.06.2020 16:00:00 16,8 10,2 4 2 19 11 N 36
30.06.2020 15:00:00 16,5 10,8 4 2 22 12 N 29
30.06.2020 14:00:00 15,9 10,4 9 5 - - WSW 15
30.06.2020 13:00:00 15,7 11,0 4 2 - - N 37
30.06.2020 12:00:00 14,6 10,7 4 2 16 8 N 22
30.06.2020 11:00:00 14,2 9,6 4 2 - - N 53
30.06.2020 10:00:00 13,5 6,9 15 8 26 14 SW 60
30.06.2020 09:00:00 13,1 5,6 26 14 - - SW 60
30.06.2020 08:00:00 - - - - - - - -
30.06.2020 07:00:00 11,9 7,0 31 17 - - SSW 42

tt = temperature
td = dewpoint
ff = wind speed
fx = gusts
dd = wind direction
sd = sunshine duration

Next stations